Time;durP1;ratioP1;P1;durP2;ratioP2;P2;SDS_P1;SDS_P2;PMS_P1;PMS_P2;Temp;Humidity;BMP_temperature;BMP_pressure;BME280_temperature;BME280_humidity;BME280_pressure;Samples;Min_cycle;Max_cycle;Signal;HPM_P1;HPM_P2
2023/08/30 00:02:22;;;;;;;6.47;4.70;;;;;;;;;;5058713;28;20474;-82
2023/08/30 00:04:48;;;;;;;5.70;5.17;;;;;;;;;;5064523;28;20570;-81
2023/08/30 00:07:14;;;;;;;4.80;4.40;;;;;;;;;;5058594;28;20537;-81
2023/08/30 00:09:40;;;;;;;7.00;4.90;;;;;;;;;;5046659;28;20226;-81
2023/08/30 00:12:07;;;;;;;4.90;4.50;;;;;;;;;;5038791;28;20532;-81
2023/08/30 00:14:35;;;;;;;7.23;5.57;;;;;;;;;;5036029;28;20442;-81
2023/08/30 00:17:01;;;;;;;6.63;5.97;;;;;;;;;;5033899;28;21023;-81
2023/08/30 00:19:28;;;;;;;6.43;5.83;;;;;;;;;;5061441;28;20842;-81
2023/08/30 00:21:54;;;;;;;7.10;5.40;;;;;;;;;;5051185;28;21031;-81
2023/08/30 00:24:21;;;;;;;6.20;5.60;;;;;;;;;;5047099;28;20886;-82
2023/08/30 00:26:47;;;;;;;9.60;5.60;;;;;;;;;;5026006;28;20550;-81
2023/08/30 00:29:14;;;;;;;7.00;6.23;;;;;;;;;;5051128;28;20442;-81
2023/08/30 00:31:42;;;;;;;7.53;6.10;;;;;;;;;;5056798;28;20475;-81
2023/08/30 00:34:08;;;;;;;11.20;7.33;;;;;;;;;;5041106;28;20488;-81
2023/08/30 00:36:34;;;;;;;7.47;6.77;;;;;;;;;;5064687;28;20481;-81
2023/08/30 00:39:01;;;;;;;7.93;6.80;;;;;;;;;;5047039;28;20475;-81
2023/08/30 00:41:27;;;;;;;6.50;5.90;;;;;;;;;;5040596;28;20491;-81
2023/08/30 00:43:52;;;;;;;7.83;7.03;;;;;;;;;;5050964;28;20480;-81
2023/08/30 00:46:19;;;;;;;11.47;7.27;;;;;;;;;;5026163;28;20470;-81
2023/08/30 00:48:48;;;;;;;7.80;6.87;;;;;;;;;;5046330;28;20611;-81
2023/08/30 00:51:14;;;;;;;7.90;7.10;;;;;;;;;;5064047;28;20464;-80
2023/08/30 00:53:41;;;;;;;8.80;7.90;;;;;;;;;;5052520;28;20454;-80
2023/08/30 00:56:07;;;;;;;8.60;7.70;;;;;;;;;;5052151;28;20490;-80
2023/08/30 00:58:34;;;;;;;7.93;7.13;;;;;;;;;;5051175;28;20480;-81
2023/08/30 01:01:00;;;;;;;7.83;7.03;;;;;;;;;;5040771;28;20432;-81
2023/08/30 01:03:27;;;;;;;8.73;7.50;;;;;;;;;;5042800;28;21067;-81
2023/08/30 01:05:55;;;;;;;8.03;7.33;;;;;;;;;;5041101;28;20472;-81
2023/08/30 01:08:21;;;;;;;8.97;8.17;;;;;;;;;;5054568;28;20485;-81
2023/08/30 01:10:52;;;;;;;8.90;8.00;;;;;;;;;;5061026;28;20433;-81
2023/08/30 01:13:20;;;;;;;8.40;7.70;;;;;;;;;;5054845;28;20454;-80
2023/08/30 01:15:48;;;;;;;9.27;8.37;;;;;;;;;;5055770;28;20460;-81
2023/08/30 01:18:16;;;;;;;10.10;9.10;;;;;;;;;;5051069;28;20477;-81
2023/08/30 01:20:44;;;;;;;8.67;7.57;;;;;;;;;;5063089;28;20463;-81
2023/08/30 01:23:16;;;;;;;11.90;8.93;;;;;;;;;;5044849;28;20979;-80
2023/08/30 01:25:46;;;;;;;9.90;8.33;;;;;;;;;;5044796;28;20486;-81
2023/08/30 01:28:17;;;;;;;11.20;10.10;;;;;;;;;;5050358;28;20466;-81
2023/08/30 01:30:44;;;;;;;10.50;9.50;;;;;;;;;;5047559;28;20452;-81
2023/08/30 01:33:11;;;;;;;11.60;10.50;;;;;;;;;;5054164;28;20832;-81
2023/08/30 01:35:40;;;;;;;12.33;11.13;;;;;;;;;;5050899;28;20570;-81
2023/08/30 01:38:07;;;;;;;14.40;11.47;;;;;;;;;;5044432;28;20520;-81
2023/08/30 01:40:36;;;;;;;9.57;8.67;;;;;;;;;;5051147;28;20474;-81
2023/08/30 01:43:02;;;;;;;13.23;11.07;;;;;;;;;;5056242;28;20453;-81
2023/08/30 01:45:30;;;;;;;13.00;11.70;;;;;;;;;;5057035;28;20830;-81
2023/08/30 01:47:58;;;;;;;11.47;10.37;;;;;;;;;;5038516;28;20443;-81
2023/08/30 01:50:25;;;;;;;11.97;10.77;;;;;;;;;;5049834;28;20461;-81
2023/08/30 01:52:52;;;;;;;16.73;11.80;;;;;;;;;;5053542;28;20442;-81
2023/08/30 01:55:20;;;;;;;12.40;11.23;;;;;;;;;;5051717;28;20457;-81
2023/08/30 01:57:47;;;;;;;12.03;10.70;;;;;;;;;;5056702;28;20829;-81
2023/08/30 02:00:15;;;;;;;12.80;11.43;;;;;;;;;;5050316;28;20475;-81
2023/08/30 02:02:43;;;;;;;11.47;10.47;;;;;;;;;;5052466;28;20488;-81
2023/08/30 02:05:12;;;;;;;11.80;10.70;;;;;;;;;;5061431;28;20475;-81
2023/08/30 02:07:41;;;;;;;12.80;10.33;;;;;;;;;;5044163;28;20494;-81
2023/08/30 02:10:10;;;;;;;13.37;11.13;;;;;;;;;;5056009;28;20478;-81
2023/08/30 02:12:40;;;;;;;11.50;10.30;;;;;;;;;;5053999;28;20500;-81
2023/08/30 02:15:08;;;;;;;12.40;11.10;;;;;;;;;;5051260;28;20466;-81
2023/08/30 02:17:35;;;;;;;11.17;9.97;;;;;;;;;;5030988;28;20987;-81
2023/08/30 02:20:03;;;;;;;11.70;10.57;;;;;;;;;;5046375;28;20456;-81
2023/08/30 02:22:31;;;;;;;11.67;10.47;;;;;;;;;;5047581;28;20464;-81
2023/08/30 02:24:57;;;;;;;11.43;10.30;;;;;;;;;;5049811;28;20491;-81
2023/08/30 02:27:24;;;;;;;11.20;10.10;;;;;;;;;;5053264;28;20486;-81
2023/08/30 02:29:50;;;;;;;11.30;10.07;;;;;;;;;;5053281;28;20486;-81
2023/08/30 02:32:20;;;;;;;10.37;9.40;;;;;;;;;;5050388;28;20457;-81
2023/08/30 02:34:48;;;;;;;10.50;9.40;;;;;;;;;;5041734;28;20478;-81
2023/08/30 02:37:16;;;;;;;12.83;9.90;;;;;;;;;;5043879;28;20476;-81
2023/08/30 02:39:42;;;;;;;12.73;9.00;;;;;;;;;;5049723;28;20442;-81
2023/08/30 02:42:08;;;;;;;9.80;8.80;;;;;;;;;;5059879;28;20490;-80
2023/08/30 02:44:36;;;;;;;10.93;9.90;;;;;;;;;;5047102;28;21026;-81
2023/08/30 02:47:02;;;;;;;10.77;9.13;;;;;;;;;;5053885;28;20453;-81
2023/08/30 02:49:28;;;;;;;9.40;8.50;;;;;;;;;;5048540;28;20435;-81
2023/08/30 02:51:55;;;;;;;9.40;8.50;;;;;;;;;;5042469;28;20480;-81
2023/08/30 02:54:23;;;;;;;10.70;8.80;;;;;;;;;;5052730;28;20459;-81
2023/08/30 02:56:50;;;;;;;9.33;8.53;;;;;;;;;;5047154;28;20484;-81
2023/08/30 02:59:17;;;;;;;9.70;8.50;;;;;;;;;;5052143;28;20445;-81
2023/08/30 03:01:44;;;;;;;10.17;8.83;;;;;;;;;;5049616;28;20487;-81
2023/08/30 03:04:10;;;;;;;12.73;9.40;;;;;;;;;;5054032;28;20478;-81
2023/08/30 03:06:37;;;;;;;11.97;8.60;;;;;;;;;;5052841;28;20985;-81
2023/08/30 03:09:04;;;;;;;9.67;8.60;;;;;;;;;;5044671;28;21041;-81
2023/08/30 03:11:32;;;;;;;9.90;9.00;;;;;;;;;;5046557;28;20521;-81
2023/08/30 03:13:59;;;;;;;12.43;11.20;;;;;;;;;;5047123;28;20479;-80
2023/08/30 03:16:26;;;;;;;12.53;8.73;;;;;;;;;;5042310;28;20475;-81
2023/08/30 03:18:52;;;;;;;10.57;9.57;;;;;;;;;;5049884;28;20463;-81
2023/08/30 03:21:19;;;;;;;9.37;8.57;;;;;;;;;;5037605;28;20998;-81
2023/08/30 03:23:45;;;;;;;10.40;9.37;;;;;;;;;;5035618;28;20481;-81
2023/08/30 03:26:13;;;;;;;10.00;9.00;;;;;;;;;;5050162;28;20483;-81
2023/08/30 03:28:41;;;;;;;10.23;7.90;;;;;;;;;;5048132;28;20477;-81
2023/08/30 03:31:16;;;;;;;10.80;9.70;;;;;;;;;;5051852;28;20478;-81
2023/08/30 03:33:42;;;;;;;11.67;9.83;;;;;;;;;;5039857;28;20976;-81
2023/08/30 03:36:10;;;;;;;11.13;10.03;;;;;;;;;;5039102;28;20496;-81
2023/08/30 03:38:37;;;;;;;13.80;10.67;;;;;;;;;;5041277;28;20556;-81
2023/08/30 03:41:04;;;;;;;11.60;10.40;;;;;;;;;;5060067;28;20462;-81
2023/08/30 03:43:31;;;;;;;11.43;9.80;;;;;;;;;;5058789;28;20523;-81
2023/08/30 03:46:00;;;;;;;11.70;10.57;;;;;;;;;;5047369;28;21010;-81
2023/08/30 03:48:26;;;;;;;13.17;11.87;;;;;;;;;;5052708;28;20460;-81
2023/08/30 03:50:53;;;;;;;11.33;10.10;;;;;;;;;;5027415;28;20471;-81
2023/08/30 03:53:19;;;;;;;11.17;10.10;;;;;;;;;;5047747;28;20481;-81
2023/08/30 03:55:46;;;;;;;12.50;11.20;;;;;;;;;;5048205;28;20885;-81
2023/08/30 03:58:12;;;;;;;13.53;12.20;;;;;;;;;;5056668;28;20959;-80
2023/08/30 04:00:39;;;;;;;12.27;11.20;;;;;;;;;;5052300;28;21041;-81
2023/08/30 04:03:06;;;;;;;13.37;12.17;;;;;;;;;;5044805;28;20453;-81
2023/08/30 04:05:34;;;;;;;11.60;10.50;;;;;;;;;;5038902;28;20461;-81
2023/08/30 04:08:01;;;;;;;13.47;12.00;;;;;;;;;;5037299;28;20501;-80
2023/08/30 04:10:28;;;;;;;12.70;11.40;;;;;;;;;;5047606;28;20490;-81
2023/08/30 04:12:54;;;;;;;12.10;10.37;;;;;;;;;;5039271;28;20464;-81
2023/08/30 04:15:21;;;;;;;12.70;11.40;;;;;;;;;;5056348;28;20480;-81
2023/08/30 04:17:49;;;;;;;14.67;12.20;;;;;;;;;;5052752;28;20456;-81
2023/08/30 04:20:17;;;;;;;13.43;12.03;;;;;;;;;;5042280;28;20457;-81
2023/08/30 04:22:44;;;;;;;14.17;12.73;;;;;;;;;;5049177;28;20537;-81
2023/08/30 04:25:10;;;;;;;15.07;13.20;;;;;;;;;;5058719;28;20451;-81
2023/08/30 04:27:37;;;;;;;15.13;13.60;;;;;;;;;;5047284;28;20845;-82
2023/08/30 04:30:03;;;;;;;15.80;14.10;;;;;;;;;;5055369;28;20541;-81
2023/08/30 04:32:30;;;;;;;18.40;15.53;;;;;;;;;;5052000;28;20487;-81
2023/08/30 04:34:56;;;;;;;14.07;12.67;;;;;;;;;;5049417;28;20462;-81
2023/08/30 04:37:25;;;;;;;16.63;13.53;;;;;;;;;;5042494;28;20992;-82
2023/08/30 04:39:52;;;;;;;16.40;14.67;;;;;;;;;;5047134;28;20470;-81
2023/08/30 04:42:18;;;;;;;17.67;15.60;;;;;;;;;;5043322;28;20473;-81
2023/08/30 04:44:45;;;;;;;16.77;14.77;;;;;;;;;;5052870;28;20831;-81
2023/08/30 04:47:11;;;;;;;17.93;14.90;;;;;;;;;;5049712;28;20523;-81
2023/08/30 04:49:38;;;;;;;17.13;15.17;;;;;;;;;;5063140;28;20460;-81
2023/08/30 04:52:06;;;;;;;16.60;15.00;;;;;;;;;;5040972;28;21032;-81
2023/08/30 04:54:34;;;;;;;13.70;12.23;;;;;;;;;;5029423;28;21078;-81
2023/08/30 04:57:00;;;;;;;15.77;14.00;;;;;;;;;;5041292;28;20486;-80
2023/08/30 04:59:26;;;;;;;17.90;15.50;;;;;;;;;;5041753;28;20450;-80
2023/08/30 05:01:54;;;;;;;15.77;14.17;;;;;;;;;;5059861;28;20467;-81
2023/08/30 05:04:21;;;;;;;14.63;13.13;;;;;;;;;;5055500;28;20550;-81
2023/08/30 05:06:48;;;;;;;14.50;12.80;;;;;;;;;;5057919;28;20871;-81
2023/08/30 05:09:15;;;;;;;16.80;14.93;;;;;;;;;;5061714;28;20967;-80
2023/08/30 05:11:43;;;;;;;19.13;15.70;;;;;;;;;;5058965;28;20453;-80
2023/08/30 05:14:12;;;;;;;17.30;15.27;;;;;;;;;;5040751;28;20464;-80
2023/08/30 05:16:39;;;;;;;18.57;15.80;;;;;;;;;;5055689;28;20449;-81
2023/08/30 05:19:05;;;;;;;17.50;15.50;;;;;;;;;;5059546;28;20462;-81
2023/08/30 05:21:31;;;;;;;16.37;14.77;;;;;;;;;;5051086;28;20491;-81
2023/08/30 05:23:58;;;;;;;17.47;14.23;;;;;;;;;;5047864;28;20450;-80
2023/08/30 05:26:25;;;;;;;16.57;14.87;;;;;;;;;;5056055;28;20478;-80
2023/08/30 05:28:52;;;;;;;16.50;14.80;;;;;;;;;;5063611;28;20536;-80
2023/08/30 05:31:19;;;;;;;16.57;14.80;;;;;;;;;;5063247;28;20453;-80
2023/08/30 05:33:45;;;;;;;15.57;14.07;;;;;;;;;;5054095;28;20472;-80
2023/08/30 05:36:11;;;;;;;17.73;15.83;;;;;;;;;;5032263;28;20483;-80
2023/08/30 05:38:38;;;;;;;22.53;17.80;;;;;;;;;;5047276;28;20815;-80
2023/08/30 05:41:04;;;;;;;18.33;16.53;;;;;;;;;;5044040;28;20460;-80
2023/08/30 05:43:30;;;;;;;18.93;16.47;;;;;;;;;;5059230;28;20857;-80
2023/08/30 05:46:02;;;;;;;18.23;16.33;;;;;;;;;;5055406;28;20483;-80
2023/08/30 05:48:29;;;;;;;21.13;16.77;;;;;;;;;;5046736;28;20845;-80
2023/08/30 05:50:55;;;;;;;21.93;19.30;;;;;;;;;;5072060;28;20450;-80
2023/08/30 05:53:22;;;;;;;19.90;17.37;;;;;;;;;;5056025;28;20451;-80
2023/08/30 05:55:50;;;;;;;21.20;18.77;;;;;;;;;;5053303;28;20445;-80
2023/08/30 05:58:18;;;;;;;19.37;17.37;;;;;;;;;;5061384;28;20479;-80
2023/08/30 06:00:44;;;;;;;21.30;18.60;;;;;;;;;;5036414;28;20540;-80
2023/08/30 06:03:12;;;;;;;20.00;17.90;;;;;;;;;;5056320;28;20433;-80
2023/08/30 06:05:38;;;;;;;24.27;18.90;;;;;;;;;;5047760;28;20484;-80
2023/08/30 06:08:05;;;;;;;21.60;19.13;;;;;;;;;;5057283;28;20824;-80
2023/08/30 06:10:31;;;;;;;20.00;17.90;;;;;;;;;;5041470;28;20450;-80
2023/08/30 06:12:58;;;;;;;22.93;17.17;;;;;;;;;;5055822;28;20473;-80
2023/08/30 06:15:26;;;;;;;28.00;17.90;;;;;;;;;;5060895;28;20465;-80
2023/08/30 06:17:52;;;;;;;18.90;16.50;;;;;;;;;;5056505;28;20450;-80
2023/08/30 06:20:20;;;;;;;22.47;19.40;;;;;;;;;;5049651;28;20507;-80
2023/08/30 06:22:46;;;;;;;22.53;20.03;;;;;;;;;;5057715;28;20464;-81
2023/08/30 06:25:12;;;;;;;20.60;17.37;;;;;;;;;;5047347;28;21005;-80
2023/08/30 06:27:42;;;;;;;22.10;18.90;;;;;;;;;;5045991;28;20454;-80
2023/08/30 06:30:09;;;;;;;19.23;17.20;;;;;;;;;;5054864;28;21047;-80
2023/08/30 06:32:36;;;;;;;20.73;18.20;;;;;;;;;;5051547;28;20828;-80
2023/08/30 06:35:03;;;;;;;20.90;18.77;;;;;;;;;;5030946;28;21044;-80
2023/08/30 06:37:31;;;;;;;23.70;18.53;;;;;;;;;;5053221;28;20867;-80
2023/08/30 06:39:58;;;;;;;23.37;19.97;;;;;;;;;;5062097;28;20469;-80
2023/08/30 06:42:25;;;;;;;22.23;19.90;;;;;;;;;;5061949;28;20557;-81
2023/08/30 06:44:51;;;;;;;20.60;18.40;;;;;;;;;;5055835;28;20570;-80
2023/08/30 06:47:17;;;;;;;20.10;18.00;;;;;;;;;;5045623;28;20452;-80
2023/08/30 06:49:44;;;;;;;22.47;18.70;;;;;;;;;;5042900;28;20443;-80
2023/08/30 06:52:10;;;;;;;24.53;19.80;;;;;;;;;;5057035;28;20817;-80
2023/08/30 06:54:38;;;;;;;21.93;19.57;;;;;;;;;;5052098;28;21013;-80
2023/08/30 06:57:06;;;;;;;22.53;18.90;;;;;;;;;;5055179;28;20873;-80
2023/08/30 06:59:33;;;;;;;20.53;18.50;;;;;;;;;;5055350;28;20854;-80
2023/08/30 07:01:59;;;;;;;19.90;17.17;;;;;;;;;;5055378;28;20433;-81
2023/08/30 07:04:26;;;;;;;21.43;19.23;;;;;;;;;;5042297;28;20477;-80
2023/08/30 07:06:52;;;;;;;20.53;18.57;;;;;;;;;;5060082;28;20475;-80
2023/08/30 07:09:18;;;;;;;20.17;17.97;;;;;;;;;;5037387;28;20480;-81
2023/08/30 07:11:46;;;;;;;20.10;17.90;;;;;;;;;;5050912;28;20468;-81
2023/08/30 07:14:16;;;;;;;21.33;19.10;;;;;;;;;;5049966;28;21032;-80
2023/08/30 07:16:43;;;;;;;22.20;18.13;;;;;;;;;;5033038;28;20436;-81
2023/08/30 07:19:09;;;;;;;21.80;19.50;;;;;;;;;;5054168;28;20996;-80
2023/08/30 07:21:38;;;;;;;21.87;18.07;;;;;;;;;;5056739;28;20441;-80
2023/08/30 07:24:05;;;;;;;20.30;18.30;;;;;;;;;;5038469;28;20479;-81
2023/08/30 07:26:32;;;;;;;21.90;19.30;;;;;;;;;;5052995;28;21005;-80
2023/08/30 07:28:59;;;;;;;23.87;20.87;;;;;;;;;;5044900;28;20467;-80
2023/08/30 07:31:26;;;;;;;20.00;18.00;;;;;;;;;;5048517;28;20486;-80
2023/08/30 07:33:52;;;;;;;20.47;18.10;;;;;;;;;;5054450;28;20473;-80
2023/08/30 07:36:18;;;;;;;20.00;17.90;;;;;;;;;;5039585;28;20434;-80
2023/08/30 07:38:46;;;;;;;21.00;17.97;;;;;;;;;;5043239;28;20551;-80
2023/08/30 07:41:14;;;;;;;21.97;17.70;;;;;;;;;;5048752;28;20445;-80
2023/08/30 07:43:41;;;;;;;23.30;20.30;;;;;;;;;;5051294;28;20437;-80
2023/08/30 07:46:08;;;;;;;19.70;17.57;;;;;;;;;;5045512;28;20465;-80
2023/08/30 07:48:35;;;;;;;20.80;17.80;;;;;;;;;;5060138;28;20459;-80
2023/08/30 07:51:02;;;;;;;19.67;16.67;;;;;;;;;;5066941;28;20976;-80
2023/08/30 07:53:28;;;;;;;22.07;16.20;;;;;;;;;;5039935;28;20469;-81
2023/08/30 07:55:54;;;;;;;18.93;16.93;;;;;;;;;;5059259;28;21006;-80
2023/08/30 07:58:21;;;;;;;24.57;16.63;;;;;;;;;;5038748;28;20481;-81
2023/08/30 08:00:51;;;;;;;23.63;16.27;;;;;;;;;;5067776;28;20440;-80
2023/08/30 08:03:19;;;;;;;22.87;17.40;;;;;;;;;;5041461;28;20468;-80
2023/08/30 08:05:45;;;;;;;18.97;15.80;;;;;;;;;;5049474;28;20479;-81
2023/08/30 08:08:12;;;;;;;19.63;15.63;;;;;;;;;;5053414;28;20474;-80
2023/08/30 08:10:38;;;;;;;16.33;13.50;;;;;;;;;;5057152;28;20479;-80
2023/08/30 08:13:05;;;;;;;17.63;13.47;;;;;;;;;;5057221;28;20469;-80
2023/08/30 08:15:32;;;;;;;18.93;14.90;;;;;;;;;;5042503;28;20962;-80
2023/08/30 08:17:58;;;;;;;16.43;14.70;;;;;;;;;;5048462;28;20467;-81
2023/08/30 08:20:27;;;;;;;15.63;13.07;;;;;;;;;;5053707;28;20495;-80
2023/08/30 08:22:53;;;;;;;14.23;12.63;;;;;;;;;;5067359;27;20998;-81
2023/08/30 08:25:20;;;;;;;14.23;12.87;;;;;;;;;;5066126;28;20473;-81
2023/08/30 08:27:47;;;;;;;15.57;12.60;;;;;;;;;;5055264;28;20459;-81
2023/08/30 08:30:14;;;;;;;12.60;11.40;;;;;;;;;;5042808;28;20465;-81
2023/08/30 08:32:41;;;;;;;13.53;12.07;;;;;;;;;;5057420;28;20502;-81
2023/08/30 08:35:08;;;;;;;16.30;12.77;;;;;;;;;;5063544;28;20487;-80
2023/08/30 08:37:36;;;;;;;13.10;11.80;;;;;;;;;;5042913;28;20481;-80
2023/08/30 08:40:08;;;;;;;11.50;10.30;;;;;;;;;;5050423;28;20485;-80
2023/08/30 08:42:35;;;;;;;12.10;10.90;;;;;;;;;;5059890;28;20562;-81
2023/08/30 08:45:02;;;;;;;12.00;10.80;;;;;;;;;;5053618;28;20462;-81
2023/08/30 08:47:30;;;;;;;16.17;11.83;;;;;;;;;;5041386;28;20864;-82
2023/08/30 08:49:57;;;;;;;12.60;11.30;;;;;;;;;;5071718;27;20850;-80
2023/08/30 08:52:24;;;;;;;12.53;11.33;;;;;;;;;;5058131;28;20467;-82
2023/08/30 08:54:52;;;;;;;17.97;12.67;;;;;;;;;;5055740;28;20860;-81
2023/08/30 08:57:19;;;;;;;14.63;11.87;;;;;;;;;;5061472;28;20483;-80
2023/08/30 08:59:46;;;;;;;13.40;11.00;;;;;;;;;;5054210;28;20526;-80
2023/08/30 09:02:14;;;;;;;16.53;11.67;;;;;;;;;;5048526;28;20472;-80
2023/08/30 09:04:41;;;;;;;12.83;11.30;;;;;;;;;;5061051;28;20475;-81
2023/08/30 09:07:07;;;;;;;13.53;10.10;;;;;;;;;;5055247;28;20475;-81
2023/08/30 09:09:34;;;;;;;17.90;11.63;;;;;;;;;;5049477;28;21000;-81
2023/08/30 09:12:02;;;;;;;13.67;12.27;;;;;;;;;;5051764;28;20466;-81
2023/08/30 09:14:28;;;;;;;11.90;9.67;;;;;;;;;;5054480;28;20475;-80
2023/08/30 09:16:55;;;;;;;12.57;10.80;;;;;;;;;;5055267;28;20471;-80
2023/08/30 09:19:21;;;;;;;11.73;10.10;;;;;;;;;;5046320;28;20471;-81
2023/08/30 09:21:51;;;;;;;11.50;10.07;;;;;;;;;;5053128;28;20477;-81
2023/08/30 09:24:20;;;;;;;14.13;10.53;;;;;;;;;;5052055;28;20463;-81
2023/08/30 09:26:48;;;;;;;11.60;9.70;;;;;;;;;;5068434;28;20478;-81
2023/08/30 09:29:17;;;;;;;12.93;9.73;;;;;;;;;;5052293;28;20471;-80
2023/08/30 09:31:43;;;;;;;13.60;9.83;;;;;;;;;;5044296;28;21001;-81
2023/08/30 09:34:11;;;;;;;11.70;9.70;;;;;;;;;;5056801;28;20985;-81
2023/08/30 09:36:37;;;;;;;11.40;9.60;;;;;;;;;;5048548;28;20480;-81
2023/08/30 09:39:05;;;;;;;11.63;10.07;;;;;;;;;;5054141;28;20469;-81
2023/08/30 09:41:33;;;;;;;11.73;9.10;;;;;;;;;;5062425;28;20498;-81
2023/08/30 09:44:00;;;;;;;11.07;9.87;;;;;;;;;;5052511;28;20475;-81
2023/08/30 09:46:28;;;;;;;11.90;9.57;;;;;;;;;;5040654;28;20481;-80
2023/08/30 09:48:55;;;;;;;13.60;9.83;;;;;;;;;;5059607;28;20459;-81
2023/08/30 09:51:24;;;;;;;10.77;9.40;;;;;;;;;;5043878;28;20518;-81
2023/08/30 09:53:54;;;;;;;11.00;8.73;;;;;;;;;;5050541;28;20469;-81
2023/08/30 09:56:22;;;;;;;13.30;9.50;;;;;;;;;;5052833;28;21011;-81
2023/08/30 09:58:49;;;;;;;11.43;9.90;;;;;;;;;;5054728;28;20467;-81
2023/08/30 10:01:16;;;;;;;11.43;9.77;;;;;;;;;;5044275;28;20839;-81
2023/08/30 10:03:44;;;;;;;11.27;8.40;;;;;;;;;;5059754;28;20521;-81
2023/08/30 10:06:11;;;;;;;10.17;8.50;;;;;;;;;;5051860;28;21016;-80
2023/08/30 10:08:39;;;;;;;10.10;8.80;;;;;;;;;;5056169;28;20462;-81
2023/08/30 10:11:06;;;;;;;10.13;8.97;;;;;;;;;;5056538;28;21056;-81
2023/08/30 10:13:34;;;;;;;10.37;8.80;;;;;;;;;;5053556;28;20467;-81
2023/08/30 10:16:03;;;;;;;12.20;9.63;;;;;;;;;;5048175;28;20488;-81
2023/08/30 10:18:30;;;;;;;11.73;8.90;;;;;;;;;;5050318;28;20456;-81
2023/08/30 10:21:00;;;;;;;12.60;9.47;;;;;;;;;;5052145;28;20494;-81
2023/08/30 10:23:26;;;;;;;11.17;8.20;;;;;;;;;;5049568;28;20483;-81
2023/08/30 10:25:54;;;;;;;9.50;8.50;;;;;;;;;;5052886;28;21052;-80
2023/08/30 10:28:22;;;;;;;13.20;9.30;;;;;;;;;;5044255;28;20495;-80
2023/08/30 10:30:48;;;;;;;10.47;9.20;;;;;;;;;;5049662;28;20485;-81
2023/08/30 10:33:16;;;;;;;10.23;8.57;;;;;;;;;;5055359;28;21007;-80
2023/08/30 10:35:51;;;;;;;11.43;8.00;;;;;;;;;;5055214;28;20492;-81
2023/08/30 10:38:27;;;;;;;10.90;8.57;;;;;;;;;;5060783;28;21050;-81
2023/08/30 10:40:54;;;;;;;8.37;7.50;;;;;;;;;;5051503;28;20480;-81
2023/08/30 10:43:29;;;;;;;12.87;8.60;;;;;;;;;;5052553;28;20565;-81
2023/08/30 10:46:00;;;;;;;11.63;8.13;;;;;;;;;;5049782;28;20653;-81
2023/08/30 10:48:34;;;;;;;9.70;8.37;;;;;;;;;;5043250;28;20492;-80
2023/08/30 10:51:04;;;;;;;9.87;8.60;;;;;;;;;;5066692;28;20877;-81
2023/08/30 10:53:32;;;;;;;11.00;8.03;;;;;;;;;;5050002;28;20996;-80
2023/08/30 10:56:04;;;;;;;11.37;8.97;;;;;;;;;;5050361;28;20492;-80
2023/08/30 10:58:39;;;;;;;15.30;8.53;;;;;;;;;;5040016;28;20470;-81
2023/08/30 11:01:07;;;;;;;9.03;7.07;;;;;;;;;;5056384;28;20818;-80
2023/08/30 11:03:34;;;;;;;10.20;8.70;;;;;;;;;;5038016;28;20521;-80
2023/08/30 11:06:01;;;;;;;14.07;8.80;;;;;;;;;;5052988;28;20996;-80
2023/08/30 11:08:29;;;;;;;11.50;10.40;;;;;;;;;;5044834;28;21032;-81
2023/08/30 11:11:03;;;;;;;10.87;9.80;;;;;;;;;;5038745;28;20468;-81
2023/08/30 11:13:30;;;;;;;13.80;10.30;;;;;;;;;;5059025;28;21103;-81
2023/08/30 11:16:00;;;;;;;12.53;10.27;;;;;;;;;;5060113;28;20483;-81
2023/08/30 11:18:27;;;;;;;14.87;9.97;;;;;;;;;;5051939;28;20469;-81
2023/08/30 11:20:54;;;;;;;13.90;12.17;;;;;;;;;;5061555;28;20505;-81
2023/08/30 11:23:21;;;;;;;13.30;10.47;;;;;;;;;;5054341;28;20490;-81
2023/08/30 11:25:50;;;;;;;12.07;9.80;;;;;;;;;;5046498;28;20997;-81
2023/08/30 11:28:24;;;;;;;11.40;7.60;;;;;;;;;;5054083;28;20464;-81
2023/08/30 11:30:51;;;;;;;11.23;8.23;;;;;;;;;;5039377;28;21008;-81
2023/08/30 11:33:18;;;;;;;11.57;8.30;;;;;;;;;;5045876;28;20477;-81
2023/08/30 11:35:44;;;;;;;12.50;9.27;;;;;;;;;;5050867;28;20491;-81
2023/08/30 11:38:10;;;;;;;18.30;9.67;;;;;;;;;;5051768;28;20478;-81
2023/08/30 11:40:37;;;;;;;16.20;9.30;;;;;;;;;;5036547;28;20903;-80
2023/08/30 11:43:03;;;;;;;12.00;10.13;;;;;;;;;;5047829;28;20471;-80
2023/08/30 11:45:34;;;;;;;13.23;8.90;;;;;;;;;;5044996;28;20504;-80
2023/08/30 11:48:00;;;;;;;11.83;9.50;;;;;;;;;;5040407;28;20462;-80
2023/08/30 11:50:28;;;;;;;11.63;9.10;;;;;;;;;;5050117;28;20904;-80
2023/08/30 11:52:55;;;;;;;12.97;9.77;;;;;;;;;;5048773;28;20458;-81
2023/08/30 11:55:21;;;;;;;11.33;8.30;;;;;;;;;;5056917;28;20468;-81
2023/08/30 11:57:51;;;;;;;13.27;9.27;;;;;;;;;;5055275;28;20465;-81
2023/08/30 12:00:19;;;;;;;10.77;9.67;;;;;;;;;;5049867;28;20483;-80
2023/08/30 12:02:49;;;;;;;12.73;9.93;;;;;;;;;;5053226;28;20453;-80
2023/08/30 12:05:15;;;;;;;12.43;9.23;;;;;;;;;;5056873;28;20476;-81
2023/08/30 12:07:42;;;;;;;10.30;9.03;;;;;;;;;;5055865;28;20544;-81
2023/08/30 12:10:09;;;;;;;10.60;9.20;;;;;;;;;;5057893;28;20470;-80
2023/08/30 12:12:36;;;;;;;13.10;9.67;;;;;;;;;;5053519;28;20464;-81
2023/08/30 12:15:03;;;;;;;16.10;10.13;;;;;;;;;;5049364;28;20482;-81
2023/08/30 12:17:30;;;;;;;11.70;9.37;;;;;;;;;;5052539;28;20836;-81
2023/08/30 12:20:03;;;;;;;11.13;9.57;;;;;;;;;;5052257;28;20997;-81
2023/08/30 12:22:36;;;;;;;17.67;14.87;;;;;;;;;;5054882;28;20492;-81
2023/08/30 12:25:03;;;;;;;21.03;17.07;;;;;;;;;;5048111;28;20492;-81
2023/08/30 12:27:30;;;;;;;18.10;16.30;;;;;;;;;;5052868;28;20476;-80
2023/08/30 12:29:56;;;;;;;17.93;16.03;;;;;;;;;;5050849;28;20469;-81
2023/08/30 12:32:22;;;;;;;22.13;17.20;;;;;;;;;;5060596;28;20464;-81
2023/08/30 12:34:49;;;;;;;21.90;18.43;;;;;;;;;;5032403;28;20535;-81
2023/08/30 12:37:17;;;;;;;17.83;15.57;;;;;;;;;;5049467;28;20498;-81
2023/08/30 12:39:45;;;;;;;18.20;16.30;;;;;;;;;;5049858;28;20996;-81
2023/08/30 12:42:11;;;;;;;18.73;16.73;;;;;;;;;;5045027;28;20907;-81
2023/08/30 12:44:37;;;;;;;20.70;17.57;;;;;;;;;;5038445;28;21031;-81
2023/08/30 12:47:04;;;;;;;23.47;18.17;;;;;;;;;;5057972;28;20472;-81
2023/08/30 12:49:31;;;;;;;21.57;17.73;;;;;;;;;;5056034;28;20467;-80
2023/08/30 12:51:57;;;;;;;18.63;16.83;;;;;;;;;;5048263;28;20480;-80
2023/08/30 12:54:24;;;;;;;18.73;16.83;;;;;;;;;;5054445;28;20473;-81
2023/08/30 12:56:51;;;;;;;22.27;17.87;;;;;;;;;;5050295;28;20496;-80
2023/08/30 12:59:18;;;;;;;18.73;16.90;;;;;;;;;;5052392;28;20479;-81
2023/08/30 13:01:44;;;;;;;20.80;18.67;;;;;;;;;;5047440;28;20491;-81
2023/08/30 13:04:10;;;;;;;20.03;18.03;;;;;;;;;;5048160;28;21290;-81
2023/08/30 13:06:37;;;;;;;20.10;18.00;;;;;;;;;;5063379;28;20850;-80
2023/08/30 13:09:04;;;;;;;20.63;18.07;;;;;;;;;;5047986;28;20471;-81
2023/08/30 13:11:33;;;;;;;21.30;19.20;;;;;;;;;;5053398;28;20478;-81
2023/08/30 13:13:59;;;;;;;21.93;17.27;;;;;;;;;;5060099;28;20468;-80
2023/08/30 13:16:26;;;;;;;23.00;16.90;;;;;;;;;;5050725;28;20499;-81
2023/08/30 13:18:52;;;;;;;20.23;16.17;;;;;;;;;;5056276;28;20845;-81
2023/08/30 13:21:18;;;;;;;19.40;15.93;;;;;;;;;;5062610;28;20551;-80
2023/08/30 13:23:45;;;;;;;20.07;16.10;;;;;;;;;;5055003;28;20476;-80
2023/08/30 13:26:11;;;;;;;16.33;14.63;;;;;;;;;;5041176;28;20479;-81
2023/08/30 13:28:39;;;;;;;19.83;16.10;;;;;;;;;;5058238;28;20493;-80
2023/08/30 13:31:07;;;;;;;19.40;16.80;;;;;;;;;;5053802;28;21001;-80
2023/08/30 13:33:33;;;;;;;20.10;17.17;;;;;;;;;;5054041;28;20843;-81
2023/08/30 13:36:00;;;;;;;21.60;18.13;;;;;;;;;;5048424;28;20459;-81
2023/08/30 13:38:26;;;;;;;22.90;17.40;;;;;;;;;;5046618;28;20588;-80
2023/08/30 13:40:58;;;;;;;24.70;18.77;;;;;;;;;;5064471;28;20463;-81
2023/08/30 13:43:25;;;;;;;19.50;17.30;;;;;;;;;;5031381;28;20921;-80
2023/08/30 13:45:59;;;;;;;21.70;17.13;;;;;;;;;;5040258;28;20479;-80
2023/08/30 13:48:25;;;;;;;21.90;17.10;;;;;;;;;;5058410;28;20467;-80
2023/08/30 13:50:51;;;;;;;18.67;16.70;;;;;;;;;;5059272;28;20539;-81
2023/08/30 13:53:18;;;;;;;19.93;17.43;;;;;;;;;;5062317;28;20468;-80
2023/08/30 13:55:48;;;;;;;24.70;19.30;;;;;;;;;;5052487;28;20494;-80
2023/08/30 13:58:14;;;;;;;23.87;19.13;;;;;;;;;;5050034;28;20544;-80
2023/08/30 14:00:41;;;;;;;22.33;18.80;;;;;;;;;;5038980;28;20476;-81
2023/08/30 14:03:09;;;;;;;24.80;19.17;;;;;;;;;;5047677;28;20467;-81
2023/08/30 14:05:35;;;;;;;21.93;18.67;;;;;;;;;;5060884;28;20467;-80
2023/08/30 14:08:02;;;;;;;25.37;18.77;;;;;;;;;;5055047;28;20443;-81
2023/08/30 14:10:28;;;;;;;25.83;19.10;;;;;;;;;;5050414;28;20470;-81
2023/08/30 14:12:55;;;;;;;21.57;19.30;;;;;;;;;;5041342;28;20469;-81
2023/08/30 14:15:21;;;;;;;19.97;17.80;;;;;;;;;;5046601;28;20487;-80
2023/08/30 14:17:49;;;;;;;23.30;19.43;;;;;;;;;;5059462;28;20463;-81
2023/08/30 14:20:16;;;;;;;24.13;20.30;;;;;;;;;;5048110;28;20852;-80
2023/08/30 14:22:43;;;;;;;22.50;18.67;;;;;;;;;;5049718;28;20834;-81
2023/08/30 14:25:10;;;;;;;22.40;17.90;;;;;;;;;;5055332;28;20484;-80